sensor_id;sensor_type;location;lat;lon;timestamp;P1;durP1;ratioP1;P2;durP2;ratioP2
75156;SDS011;63736;50.076;8.198;2023-07-24T00:01:52;892.58;;;216.15;;
75156;SDS011;63736;50.076;8.198;2023-07-24T00:04:17;896.23;;;216.53;;
75156;SDS011;63736;50.076;8.198;2023-07-24T00:06:42;886.70;;;213.90;;
75156;SDS011;63736;50.076;8.198;2023-07-24T00:09:07;882.33;;;213.33;;
75156;SDS011;63736;50.076;8.198;2023-07-24T00:11:33;874.67;;;211.47;;
75156;SDS011;63736;50.076;8.198;2023-07-24T00:13:58;871.23;;;211.67;;
75156;SDS011;63736;50.076;8.198;2023-07-24T00:16:23;867.37;;;209.40;;
75156;SDS011;63736;50.076;8.198;2023-07-24T00:18:49;865.30;;;208.73;;
75156;SDS011;63736;50.076;8.198;2023-07-24T00:21:14;864.55;;;208.30;;
75156;SDS011;63736;50.076;8.198;2023-07-24T00:23:40;864.23;;;208.47;;
75156;SDS011;63736;50.076;8.198;2023-07-24T00:26:05;859.03;;;207.37;;
75156;SDS011;63736;50.076;8.198;2023-07-24T00:28:30;851.23;;;205.97;;
75156;SDS011;63736;50.076;8.198;2023-07-24T00:30:55;840.23;;;201.97;;
75156;SDS011;63736;50.076;8.198;2023-07-24T00:33:21;833.15;;;200.55;;
75156;SDS011;63736;50.076;8.198;2023-07-24T00:35:46;830.47;;;199.80;;
75156;SDS011;63736;50.076;8.198;2023-07-24T00:38:12;827.30;;;199.50;;
75156;SDS011;63736;50.076;8.198;2023-07-24T00:40:37;825.93;;;198.90;;
75156;SDS011;63736;50.076;8.198;2023-07-24T00:43:02;821.50;;;197.00;;
75156;SDS011;63736;50.076;8.198;2023-07-24T00:45:28;822.53;;;198.07;;
75156;SDS011;63736;50.076;8.198;2023-07-24T00:47:53;822.73;;;198.80;;
75156;SDS011;63736;50.076;8.198;2023-07-24T00:50:19;820.20;;;197.33;;
75156;SDS011;63736;50.076;8.198;2023-07-24T00:52:44;817.50;;;196.50;;
75156;SDS011;63736;50.076;8.198;2023-07-24T00:55:10;819.03;;;197.40;;
75156;SDS011;63736;50.076;8.198;2023-07-24T00:57:38;818.77;;;197.40;;
75156;SDS011;63736;50.076;8.198;2023-07-24T01:00:04;817.35;;;196.52;;
75156;SDS011;63736;50.076;8.198;2023-07-24T01:02:31;816.67;;;197.00;;
75156;SDS011;63736;50.076;8.198;2023-07-24T01:04:56;810.80;;;194.10;;
75156;SDS011;63736;50.076;8.198;2023-07-24T01:07:21;813.23;;;196.43;;
75156;SDS011;63736;50.076;8.198;2023-07-24T01:09:47;810.93;;;195.13;;
75156;SDS011;63736;50.076;8.198;2023-07-24T01:14:52;814.80;;;197.50;;
75156;SDS011;63736;50.076;8.198;2023-07-24T01:17:23;810.53;;;195.32;;
75156;SDS011;63736;50.076;8.198;2023-07-24T01:19:54;810.65;;;194.73;;
75156;SDS011;63736;50.076;8.198;2023-07-24T01:24:57;808.03;;;193.25;;
75156;SDS011;63736;50.076;8.198;2023-07-24T01:27:24;813.63;;;197.13;;
75156;SDS011;63736;50.076;8.198;2023-07-24T01:29:49;810.35;;;194.32;;
75156;SDS011;63736;50.076;8.198;2023-07-24T01:32:14;810.90;;;194.83;;
75156;SDS011;63736;50.076;8.198;2023-07-24T01:34:40;811.77;;;196.63;;
75156;SDS011;63736;50.076;8.198;2023-07-24T01:37:05;810.47;;;195.23;;
75156;SDS011;63736;50.076;8.198;2023-07-24T01:39:31;808.77;;;194.80;;
75156;SDS011;63736;50.076;8.198;2023-07-24T01:41:57;808.95;;;194.43;;
75156;SDS011;63736;50.076;8.198;2023-07-24T01:44:23;813.10;;;197.07;;
75156;SDS011;63736;50.076;8.198;2023-07-24T01:46:48;808.37;;;194.00;;
75156;SDS011;63736;50.076;8.198;2023-07-24T01:49:14;810.10;;;194.10;;
75156;SDS011;63736;50.076;8.198;2023-07-24T01:51:39;810.70;;;195.43;;
75156;SDS011;63736;50.076;8.198;2023-07-24T01:54:04;808.30;;;194.63;;
75156;SDS011;63736;50.076;8.198;2023-07-24T01:56:29;808.20;;;195.07;;
75156;SDS011;63736;50.076;8.198;2023-07-24T01:58:55;807.27;;;194.90;;
75156;SDS011;63736;50.076;8.198;2023-07-24T02:01:20;806.70;;;193.77;;
75156;SDS011;63736;50.076;8.198;2023-07-24T02:03:45;806.17;;;194.47;;
75156;SDS011;63736;50.076;8.198;2023-07-24T02:06:11;810.93;;;196.13;;
75156;SDS011;63736;50.076;8.198;2023-07-24T02:08:36;806.70;;;193.40;;
75156;SDS011;63736;50.076;8.198;2023-07-24T02:11:01;808.10;;;194.60;;
75156;SDS011;63736;50.076;8.198;2023-07-24T02:13:26;806.03;;;193.27;;
75156;SDS011;63736;50.076;8.198;2023-07-24T02:15:52;805.13;;;192.80;;
75156;SDS011;63736;50.076;8.198;2023-07-24T02:18:18;806.22;;;194.18;;
75156;SDS011;63736;50.076;8.198;2023-07-24T02:20:50;805.90;;;194.27;;
75156;SDS011;63736;50.076;8.198;2023-07-24T02:23:16;808.67;;;195.95;;
75156;SDS011;63736;50.076;8.198;2023-07-24T02:25:41;806.60;;;194.37;;
75156;SDS011;63736;50.076;8.198;2023-07-24T02:28:08;805.35;;;194.00;;
75156;SDS011;63736;50.076;8.198;2023-07-24T02:30:37;808.87;;;195.80;;
75156;SDS011;63736;50.076;8.198;2023-07-24T02:33:03;807.97;;;194.93;;
75156;SDS011;63736;50.076;8.198;2023-07-24T02:35:28;806.80;;;193.60;;
75156;SDS011;63736;50.076;8.198;2023-07-24T02:37:53;808.20;;;194.77;;
75156;SDS011;63736;50.076;8.198;2023-07-24T02:40:21;809.60;;;195.23;;
75156;SDS011;63736;50.076;8.198;2023-07-24T02:42:46;810.80;;;194.97;;
75156;SDS011;63736;50.076;8.198;2023-07-24T02:45:11;816.03;;;196.97;;
75156;SDS011;63736;50.076;8.198;2023-07-24T02:47:37;817.47;;;196.63;;
75156;SDS011;63736;50.076;8.198;2023-07-24T02:50:03;866.53;;;208.70;;
75156;SDS011;63736;50.076;8.198;2023-07-24T02:52:28;893.92;;;215.68;;
75156;SDS011;63736;50.076;8.198;2023-07-24T02:54:54;867.80;;;209.73;;
75156;SDS011;63736;50.076;8.198;2023-07-24T02:57:19;820.25;;;196.68;;
75156;SDS011;63736;50.076;8.198;2023-07-24T02:59:45;819.73;;;197.83;;
75156;SDS011;63736;50.076;8.198;2023-07-24T03:02:10;824.07;;;198.00;;
75156;SDS011;63736;50.076;8.198;2023-07-24T03:04:35;824.27;;;198.23;;
75156;SDS011;63736;50.076;8.198;2023-07-24T03:07:01;824.97;;;198.10;;
75156;SDS011;63736;50.076;8.198;2023-07-24T03:09:26;821.42;;;196.23;;
75156;SDS011;63736;50.076;8.198;2023-07-24T03:11:51;826.57;;;198.53;;
75156;SDS011;63736;50.076;8.198;2023-07-24T03:14:16;825.03;;;197.63;;
75156;SDS011;63736;50.076;8.198;2023-07-24T03:16:42;821.20;;;196.97;;
75156;SDS011;63736;50.076;8.198;2023-07-24T03:19:07;811.13;;;194.93;;
75156;SDS011;63736;50.076;8.198;2023-07-24T03:21:33;810.90;;;194.90;;
75156;SDS011;63736;50.076;8.198;2023-07-24T03:23:58;814.63;;;195.17;;
75156;SDS011;63736;50.076;8.198;2023-07-24T03:26:23;805.17;;;192.33;;
75156;SDS011;63736;50.076;8.198;2023-07-24T03:28:48;809.73;;;194.63;;
75156;SDS011;63736;50.076;8.198;2023-07-24T03:31:14;803.37;;;193.37;;
75156;SDS011;63736;50.076;8.198;2023-07-24T03:33:39;798.03;;;191.93;;
75156;SDS011;63736;50.076;8.198;2023-07-24T03:36:04;796.83;;;192.07;;
75156;SDS011;63736;50.076;8.198;2023-07-24T03:38:29;798.53;;;191.53;;
75156;SDS011;63736;50.076;8.198;2023-07-24T03:40:55;804.57;;;193.30;;
75156;SDS011;63736;50.076;8.198;2023-07-24T03:43:20;802.83;;;193.00;;
75156;SDS011;63736;50.076;8.198;2023-07-24T03:45:45;802.83;;;193.17;;
75156;SDS011;63736;50.076;8.198;2023-07-24T03:48:11;796.83;;;190.93;;
75156;SDS011;63736;50.076;8.198;2023-07-24T03:50:36;786.27;;;188.47;;
75156;SDS011;63736;50.076;8.198;2023-07-24T03:53:01;779.63;;;186.40;;
75156;SDS011;63736;50.076;8.198;2023-07-24T03:55:26;778.70;;;186.50;;
75156;SDS011;63736;50.076;8.198;2023-07-24T03:57:52;775.50;;;186.10;;
75156;SDS011;63736;50.076;8.198;2023-07-24T04:00:17;774.50;;;185.80;;
75156;SDS011;63736;50.076;8.198;2023-07-24T04:02:43;772.53;;;184.55;;
75156;SDS011;63736;50.076;8.198;2023-07-24T04:05:09;772.30;;;185.43;;
75156;SDS011;63736;50.076;8.198;2023-07-24T04:07:34;768.87;;;184.20;;
75156;SDS011;63736;50.076;8.198;2023-07-24T04:09:59;770.53;;;184.75;;
75156;SDS011;63736;50.076;8.198;2023-07-24T04:12:25;768.70;;;183.33;;
75156;SDS011;63736;50.076;8.198;2023-07-24T04:14:50;767.70;;;183.53;;
75156;SDS011;63736;50.076;8.198;2023-07-24T04:17:15;766.63;;;183.97;;
75156;SDS011;63736;50.076;8.198;2023-07-24T04:19:41;763.03;;;181.60;;
75156;SDS011;63736;50.076;8.198;2023-07-24T04:22:06;762.63;;;181.80;;
75156;SDS011;63736;50.076;8.198;2023-07-24T04:24:31;765.93;;;183.50;;
75156;SDS011;63736;50.076;8.198;2023-07-24T04:26:57;759.43;;;180.90;;
75156;SDS011;63736;50.076;8.198;2023-07-24T04:29:22;758.85;;;180.63;;
75156;SDS011;63736;50.076;8.198;2023-07-24T04:31:49;758.87;;;180.87;;
75156;SDS011;63736;50.076;8.198;2023-07-24T04:34:15;759.50;;;180.60;;
75156;SDS011;63736;50.076;8.198;2023-07-24T04:36:40;759.03;;;180.97;;
75156;SDS011;63736;50.076;8.198;2023-07-24T04:39:06;761.23;;;182.70;;
75156;SDS011;63736;50.076;8.198;2023-07-24T04:41:31;761.03;;;182.83;;
75156;SDS011;63736;50.076;8.198;2023-07-24T04:43:56;762.53;;;182.20;;
75156;SDS011;63736;50.076;8.198;2023-07-24T04:46:21;760.63;;;181.45;;
75156;SDS011;63736;50.076;8.198;2023-07-24T04:48:47;759.00;;;180.80;;
75156;SDS011;63736;50.076;8.198;2023-07-24T04:51:12;758.90;;;180.93;;
75156;SDS011;63736;50.076;8.198;2023-07-24T04:53:37;759.80;;;182.20;;
75156;SDS011;63736;50.076;8.198;2023-07-24T04:56:03;761.20;;;182.50;;
75156;SDS011;63736;50.076;8.198;2023-07-24T04:58:28;754.83;;;180.00;;
75156;SDS011;63736;50.076;8.198;2023-07-24T05:00:53;757.20;;;180.73;;
75156;SDS011;63736;50.076;8.198;2023-07-24T05:03:19;758.40;;;181.00;;
75156;SDS011;63736;50.076;8.198;2023-07-24T05:05:47;758.43;;;180.23;;
75156;SDS011;63736;50.076;8.198;2023-07-24T05:08:13;762.10;;;183.38;;
75156;SDS011;63736;50.076;8.198;2023-07-24T05:10:38;761.07;;;182.33;;
75156;SDS011;63736;50.076;8.198;2023-07-24T05:13:04;758.97;;;181.30;;
75156;SDS011;63736;50.076;8.198;2023-07-24T05:15:29;759.97;;;182.13;;
75156;SDS011;63736;50.076;8.198;2023-07-24T05:17:54;754.17;;;178.67;;
75156;SDS011;63736;50.076;8.198;2023-07-24T05:20:20;753.87;;;179.70;;
75156;SDS011;63736;50.076;8.198;2023-07-24T05:22:45;756.17;;;181.17;;
75156;SDS011;63736;50.076;8.198;2023-07-24T05:25:10;754.00;;;179.73;;
75156;SDS011;63736;50.076;8.198;2023-07-24T05:27:35;758.67;;;181.57;;
75156;SDS011;63736;50.076;8.198;2023-07-24T05:30:01;755.40;;;180.63;;
75156;SDS011;63736;50.076;8.198;2023-07-24T05:32:27;754.13;;;179.87;;
75156;SDS011;63736;50.076;8.198;2023-07-24T05:34:52;757.53;;;181.37;;
75156;SDS011;63736;50.076;8.198;2023-07-24T05:37:17;757.07;;;180.73;;
75156;SDS011;63736;50.076;8.198;2023-07-24T05:39:43;756.15;;;179.27;;
75156;SDS011;63736;50.076;8.198;2023-07-24T05:42:08;762.30;;;182.73;;
75156;SDS011;63736;50.076;8.198;2023-07-24T05:44:33;762.10;;;181.70;;
75156;SDS011;63736;50.076;8.198;2023-07-24T05:47:00;764.13;;;182.95;;
75156;SDS011;63736;50.076;8.198;2023-07-24T05:49:26;763.87;;;182.10;;
75156;SDS011;63736;50.076;8.198;2023-07-24T05:51:51;757.97;;;180.33;;
75156;SDS011;63736;50.076;8.198;2023-07-24T05:54:17;759.30;;;181.43;;
75156;SDS011;63736;50.076;8.198;2023-07-24T05:56:43;758.83;;;181.10;;
75156;SDS011;63736;50.076;8.198;2023-07-24T05:59:08;758.07;;;180.37;;
75156;SDS011;63736;50.076;8.198;2023-07-24T06:01:33;759.17;;;180.87;;
75156;SDS011;63736;50.076;8.198;2023-07-24T06:03:58;759.13;;;180.67;;
75156;SDS011;63736;50.076;8.198;2023-07-24T06:06:24;756.53;;;180.20;;
75156;SDS011;63736;50.076;8.198;2023-07-24T06:08:49;756.90;;;180.40;;
75156;SDS011;63736;50.076;8.198;2023-07-24T06:11:15;760.08;;;181.18;;
75156;SDS011;63736;50.076;8.198;2023-07-24T06:13:41;761.43;;;181.23;;
75156;SDS011;63736;50.076;8.198;2023-07-24T06:16:06;765.87;;;182.87;;
75156;SDS011;63736;50.076;8.198;2023-07-24T06:18:32;768.80;;;182.35;;
75156;SDS011;63736;50.076;8.198;2023-07-24T06:20:58;774.80;;;184.07;;
75156;SDS011;63736;50.076;8.198;2023-07-24T06:23:23;779.87;;;184.93;;
75156;SDS011;63736;50.076;8.198;2023-07-24T06:25:48;787.17;;;187.07;;
75156;SDS011;63736;50.076;8.198;2023-07-24T06:28:14;800.73;;;190.43;;
75156;SDS011;63736;50.076;8.198;2023-07-24T06:30:39;817.60;;;194.83;;
75156;SDS011;63736;50.076;8.198;2023-07-24T06:33:04;853.47;;;204.60;;
75156;SDS011;63736;50.076;8.198;2023-07-24T06:35:30;896.97;;;216.60;;
75156;SDS011;63736;50.076;8.198;2023-07-24T06:37:55;919.20;;;221.15;;
75156;SDS011;63736;50.076;8.198;2023-07-24T06:40:21;879.07;;;210.43;;
75156;SDS011;63736;50.076;8.198;2023-07-24T06:42:46;878.90;;;209.20;;
75156;SDS011;63736;50.076;8.198;2023-07-24T06:45:11;898.13;;;215.33;;
75156;SDS011;63736;50.076;8.198;2023-07-24T06:47:37;953.05;;;227.50;;
75156;SDS011;63736;50.076;8.198;2023-07-24T06:50:02;905.63;;;214.10;;
75156;SDS011;63736;50.076;8.198;2023-07-24T06:52:29;1040.22;;;249.82;;
75156;SDS011;63736;50.076;8.198;2023-07-24T06:54:54;1117.87;;;268.27;;
75156;SDS011;63736;50.076;8.198;2023-07-24T06:57:19;1230.90;;;299.80;;
75156;SDS011;63736;50.076;8.198;2023-07-24T06:59:45;1151.30;;;275.80;;
75156;SDS011;63736;50.076;8.198;2023-07-24T07:02:10;977.07;;;232.80;;
75156;SDS011;63736;50.076;8.198;2023-07-24T07:04:35;898.43;;;214.20;;
75156;SDS011;63736;50.076;8.198;2023-07-24T07:07:01;850.60;;;202.30;;
75156;SDS011;63736;50.076;8.198;2023-07-24T07:09:26;832.23;;;198.97;;
75156;SDS011;63736;50.076;8.198;2023-07-24T07:11:52;813.50;;;194.48;;
75156;SDS011;63736;50.076;8.198;2023-07-24T07:14:17;799.27;;;191.07;;
75156;SDS011;63736;50.076;8.198;2023-07-24T07:16:42;778.50;;;186.50;;
75156;SDS011;63736;50.076;8.198;2023-07-24T07:19:07;772.63;;;185.13;;
75156;SDS011;63736;50.076;8.198;2023-07-24T07:21:34;767.60;;;184.50;;
75156;SDS011;63736;50.076;8.198;2023-07-24T07:23:59;770.73;;;184.90;;
75156;SDS011;63736;50.076;8.198;2023-07-24T07:26:25;772.00;;;185.27;;
75156;SDS011;63736;50.076;8.198;2023-07-24T07:28:50;765.60;;;183.37;;
75156;SDS011;63736;50.076;8.198;2023-07-24T07:31:15;765.20;;;182.63;;
75156;SDS011;63736;50.076;8.198;2023-07-24T07:33:41;774.38;;;184.20;;
75156;SDS011;63736;50.076;8.198;2023-07-24T07:36:06;875.47;;;208.60;;
75156;SDS011;63736;50.076;8.198;2023-07-24T07:38:31;923.20;;;219.23;;
75156;SDS011;63736;50.076;8.198;2023-07-24T07:40:57;938.10;;;222.33;;
75156;SDS011;63736;50.076;8.198;2023-07-24T07:43:22;934.88;;;221.70;;
75156;SDS011;63736;50.076;8.198;2023-07-24T07:45:48;945.53;;;225.20;;
75156;SDS011;63736;50.076;8.198;2023-07-24T07:48:13;930.00;;;221.83;;
75156;SDS011;63736;50.076;8.198;2023-07-24T07:50:38;945.43;;;224.60;;
75156;SDS011;63736;50.076;8.198;2023-07-24T07:53:04;963.63;;;228.53;;
75156;SDS011;63736;50.076;8.198;2023-07-24T07:55:29;964.95;;;229.98;;
75156;SDS011;63736;50.076;8.198;2023-07-24T07:57:54;961.37;;;230.30;;
75156;SDS011;63736;50.076;8.198;2023-07-24T08:00:20;949.17;;;226.33;;
75156;SDS011;63736;50.076;8.198;2023-07-24T08:02:45;942.30;;;225.57;;
75156;SDS011;63736;50.076;8.198;2023-07-24T08:05:10;933.40;;;223.40;;
75156;SDS011;63736;50.076;8.198;2023-07-24T08:07:36;932.07;;;222.97;;
75156;SDS011;63736;50.076;8.198;2023-07-24T08:10:02;927.95;;;221.48;;
75156;SDS011;63736;50.076;8.198;2023-07-24T08:12:28;928.83;;;221.57;;
75156;SDS011;63736;50.076;8.198;2023-07-24T08:14:53;926.10;;;221.23;;
75156;SDS011;63736;50.076;8.198;2023-07-24T08:17:18;923.97;;;221.10;;
75156;SDS011;63736;50.076;8.198;2023-07-24T08:19:44;922.17;;;219.37;;
75156;SDS011;63736;50.076;8.198;2023-07-24T08:22:10;923.33;;;221.25;;
75156;SDS011;63736;50.076;8.198;2023-07-24T08:24:35;925.60;;;221.57;;
75156;SDS011;63736;50.076;8.198;2023-07-24T08:27:01;925.77;;;221.87;;
75156;SDS011;63736;50.076;8.198;2023-07-24T08:29:26;924.15;;;219.93;;
75156;SDS011;63736;50.076;8.198;2023-07-24T08:31:52;1126.53;;;268.03;;
75156;SDS011;63736;50.076;8.198;2023-07-24T08:34:17;1029.40;;;246.03;;
75156;SDS011;63736;50.076;8.198;2023-07-24T08:36:42;1040.70;;;249.03;;
75156;SDS011;63736;50.076;8.198;2023-07-24T08:39:08;1020.80;;;244.50;;
75156;SDS011;63736;50.076;8.198;2023-07-24T08:41:33;1015.30;;;242.37;;
75156;SDS011;63736;50.076;8.198;2023-07-24T08:43:59;1020.90;;;245.60;;
75156;SDS011;63736;50.076;8.198;2023-07-24T08:46:25;1002.43;;;239.27;;
75156;SDS011;63736;50.076;8.198;2023-07-24T08:48:51;1002.80;;;240.77;;
75156;SDS011;63736;50.076;8.198;2023-07-24T08:51:18;1007.58;;;242.02;;
75156;SDS011;63736;50.076;8.198;2023-07-24T08:53:45;1001.42;;;239.07;;
75156;SDS011;63736;50.076;8.198;2023-07-24T08:56:12;994.70;;;240.23;;
75156;SDS011;63736;50.076;8.198;2023-07-24T08:58:38;972.63;;;233.13;;
75156;SDS011;63736;50.076;8.198;2023-07-24T09:01:04;980.17;;;235.50;;
75156;SDS011;63736;50.076;8.198;2023-07-24T09:03:31;939.13;;;227.20;;
75156;SDS011;63736;50.076;8.198;2023-07-24T09:05:57;928.38;;;223.73;;
75156;SDS011;63736;50.076;8.198;2023-07-24T09:08:32;931.23;;;224.40;;
75156;SDS011;63736;50.076;8.198;2023-07-24T09:11:01;912.83;;;219.90;;
75156;SDS011;63736;50.076;8.198;2023-07-24T09:13:28;907.27;;;219.93;;
75156;SDS011;63736;50.076;8.198;2023-07-24T09:15:54;889.83;;;214.15;;
75156;SDS011;63736;50.076;8.198;2023-07-24T09:18:20;886.45;;;216.10;;
75156;SDS011;63736;50.076;8.198;2023-07-24T09:20:46;881.38;;;213.38;;
75156;SDS011;63736;50.076;8.198;2023-07-24T09:23:13;877.92;;;212.63;;
75156;SDS011;63736;50.076;8.198;2023-07-24T09:25:39;875.30;;;211.67;;
75156;SDS011;63736;50.076;8.198;2023-07-24T09:28:13;882.65;;;214.35;;
75156;SDS011;63736;50.076;8.198;2023-07-24T09:30:40;886.45;;;216.07;;
75156;SDS011;63736;50.076;8.198;2023-07-24T09:33:07;879.03;;;214.05;;
75156;SDS011;63736;50.076;8.198;2023-07-24T09:35:33;876.77;;;212.93;;
75156;SDS011;63736;50.076;8.198;2023-07-24T09:38:05;883.47;;;213.32;;
75156;SDS011;63736;50.076;8.198;2023-07-24T09:40:39;783.72;;;190.85;;
75156;SDS011;63736;50.076;8.198;2023-07-24T09:43:16;751.13;;;183.47;;
75156;SDS011;63736;50.076;8.198;2023-07-24T09:45:45;749.60;;;182.65;;
75156;SDS011;63736;50.076;8.198;2023-07-24T09:48:13;693.05;;;171.35;;
75156;SDS011;63736;50.076;8.198;2023-07-24T09:50:40;659.10;;;161.63;;
75156;SDS011;63736;50.076;8.198;2023-07-24T09:53:08;644.33;;;159.98;;
75156;SDS011;63736;50.076;8.198;2023-07-24T09:55:43;626.93;;;155.97;;
75156;SDS011;63736;50.076;8.198;2023-07-24T09:58:22;621.90;;;155.32;;
75156;SDS011;63736;50.076;8.198;2023-07-24T10:00:49;616.70;;;155.50;;
75156;SDS011;63736;50.076;8.198;2023-07-24T10:03:15;614.97;;;153.60;;
75156;SDS011;63736;50.076;8.198;2023-07-24T10:05:41;617.30;;;153.88;;
75156;SDS011;63736;50.076;8.198;2023-07-24T10:08:10;620.27;;;153.77;;
75156;SDS011;63736;50.076;8.198;2023-07-24T10:10:35;623.08;;;154.25;;
75156;SDS011;63736;50.076;8.198;2023-07-24T10:13:02;629.50;;;157.10;;
75156;SDS011;63736;50.076;8.198;2023-07-24T10:15:29;627.22;;;154.85;;
75156;SDS011;63736;50.076;8.198;2023-07-24T10:18:05;633.10;;;155.30;;
75156;SDS011;63736;50.076;8.198;2023-07-24T10:20:35;634.10;;;156.17;;
75156;SDS011;63736;50.076;8.198;2023-07-24T10:23:01;631.85;;;154.77;;
75156;SDS011;63736;50.076;8.198;2023-07-24T10:25:30;633.65;;;156.77;;
75156;SDS011;63736;50.076;8.198;2023-07-24T10:28:03;632.72;;;155.82;;
75156;SDS011;63736;50.076;8.198;2023-07-24T10:30:32;635.90;;;156.35;;
75156;SDS011;63736;50.076;8.198;2023-07-24T10:33:08;638.57;;;157.23;;
75156;SDS011;63736;50.076;8.198;2023-07-24T10:35:42;639.78;;;156.70;;
75156;SDS011;63736;50.076;8.198;2023-07-24T10:38:10;641.70;;;158.65;;
75156;SDS011;63736;50.076;8.198;2023-07-24T10:40:36;634.55;;;155.55;;
75156;SDS011;63736;50.076;8.198;2023-07-24T10:43:09;635.83;;;156.83;;
75156;SDS011;63736;50.076;8.198;2023-07-24T10:45:40;635.55;;;156.68;;
75156;SDS011;63736;50.076;8.198;2023-07-24T10:48:06;635.67;;;158.02;;
75156;SDS011;63736;50.076;8.198;2023-07-24T10:50:38;632.30;;;155.40;;
75156;SDS011;63736;50.076;8.198;2023-07-24T10:53:04;631.97;;;155.70;;
75156;SDS011;63736;50.076;8.198;2023-07-24T10:55:30;632.50;;;156.80;;
75156;SDS011;63736;50.076;8.198;2023-07-24T10:57:55;634.17;;;157.43;;
75156;SDS011;63736;50.076;8.198;2023-07-24T11:00:20;629.50;;;154.88;;
75156;SDS011;63736;50.076;8.198;2023-07-24T11:02:46;632.20;;;156.27;;
75156;SDS011;63736;50.076;8.198;2023-07-24T11:05:11;631.60;;;155.37;;
75156;SDS011;63736;50.076;8.198;2023-07-24T11:07:38;632.15;;;155.00;;
75156;SDS011;63736;50.076;8.198;2023-07-24T11:10:13;633.97;;;155.97;;
75156;SDS011;63736;50.076;8.198;2023-07-24T11:12:39;635.47;;;156.50;;
75156;SDS011;63736;50.076;8.198;2023-07-24T11:15:05;636.40;;;156.33;;
75156;SDS011;63736;50.076;8.198;2023-07-24T11:17:37;632.27;;;154.93;;
75156;SDS011;63736;50.076;8.198;2023-07-24T11:20:14;631.83;;;154.55;;
75156;SDS011;63736;50.076;8.198;2023-07-24T11:22:41;635.05;;;157.65;;
75156;SDS011;63736;50.076;8.198;2023-07-24T11:25:08;630.55;;;155.00;;
75156;SDS011;63736;50.076;8.198;2023-07-24T11:27:41;630.58;;;155.55;;
75156;SDS011;63736;50.076;8.198;2023-07-24T11:30:09;629.43;;;154.60;;
75156;SDS011;63736;50.076;8.198;2023-07-24T11:32:35;632.63;;;155.02;;
75156;SDS011;63736;50.076;8.198;2023-07-24T11:35:02;631.90;;;156.27;;
75156;SDS011;63736;50.076;8.198;2023-07-24T11:37:28;632.38;;;155.13;;
75156;SDS011;63736;50.076;8.198;2023-07-24T11:39:54;629.87;;;154.07;;
75156;SDS011;63736;50.076;8.198;2023-07-24T11:42:20;633.80;;;156.25;;
75156;SDS011;63736;50.076;8.198;2023-07-24T11:44:46;632.27;;;155.23;;
75156;SDS011;63736;50.076;8.198;2023-07-24T11:47:11;634.07;;;156.93;;
75156;SDS011;63736;50.076;8.198;2023-07-24T11:49:36;630.77;;;155.93;;
75156;SDS011;63736;50.076;8.198;2023-07-24T11:52:05;628.93;;;155.27;;
75156;SDS011;63736;50.076;8.198;2023-07-24T11:54:34;627.78;;;154.52;;
75156;SDS011;63736;50.076;8.198;2023-07-24T11:57:00;627.80;;;155.15;;
75156;SDS011;63736;50.076;8.198;2023-07-24T11:59:25;626.57;;;155.37;;
75156;SDS011;63736;50.076;8.198;2023-07-24T12:01:51;626.45;;;156.27;;
75156;SDS011;63736;50.076;8.198;2023-07-24T12:04:17;626.70;;;154.73;;
75156;SDS011;63736;50.076;8.198;2023-07-24T12:06:42;623.07;;;154.37;;
75156;SDS011;63736;50.076;8.198;2023-07-24T12:09:08;622.60;;;153.57;;
75156;SDS011;63736;50.076;8.198;2023-07-24T12:11:44;620.92;;;154.13;;
75156;SDS011;63736;50.076;8.198;2023-07-24T12:14:11;623.20;;;154.33;;
75156;SDS011;63736;50.076;8.198;2023-07-24T12:16:36;616.88;;;153.27;;
75156;SDS011;63736;50.076;8.198;2023-07-24T12:19:02;616.90;;;153.37;;
75156;SDS011;63736;50.076;8.198;2023-07-24T12:21:27;613.47;;;152.03;;
75156;SDS011;63736;50.076;8.198;2023-07-24T12:23:52;609.27;;;151.63;;
75156;SDS011;63736;50.076;8.198;2023-07-24T12:26:18;610.30;;;151.52;;
75156;SDS011;63736;50.076;8.198;2023-07-24T12:28:43;614.63;;;152.63;;
75156;SDS011;63736;50.076;8.198;2023-07-24T12:31:08;615.40;;;152.70;;
75156;SDS011;63736;50.076;8.198;2023-07-24T12:33:34;617.67;;;153.70;;
75156;SDS011;63736;50.076;8.198;2023-07-24T12:35:59;617.70;;;153.43;;
75156;SDS011;63736;50.076;8.198;2023-07-24T12:38:24;615.87;;;153.60;;
75156;SDS011;63736;50.076;8.198;2023-07-24T12:40:49;616.27;;;153.73;;
75156;SDS011;63736;50.076;8.198;2023-07-24T12:43:15;615.70;;;153.00;;
75156;SDS011;63736;50.076;8.198;2023-07-24T12:45:40;617.65;;;153.70;;
75156;SDS011;63736;50.076;8.198;2023-07-24T12:48:05;615.50;;;153.37;;
75156;SDS011;63736;50.076;8.198;2023-07-24T12:50:31;618.30;;;154.23;;
75156;SDS011;63736;50.076;8.198;2023-07-24T12:52:56;619.43;;;153.07;;
75156;SDS011;63736;50.076;8.198;2023-07-24T12:55:21;622.20;;;155.13;;
75156;SDS011;63736;50.076;8.198;2023-07-24T12:57:47;621.03;;;153.77;;
75156;SDS011;63736;50.076;8.198;2023-07-24T13:00:12;622.23;;;153.13;;
75156;SDS011;63736;50.076;8.198;2023-07-24T13:02:37;627.00;;;154.07;;
75156;SDS011;63736;50.076;8.198;2023-07-24T13:05:03;627.73;;;154.87;;
75156;SDS011;63736;50.076;8.198;2023-07-24T13:07:28;631.87;;;156.57;;
75156;SDS011;63736;50.076;8.198;2023-07-24T13:09:54;627.92;;;154.57;;
75156;SDS011;63736;50.076;8.198;2023-07-24T13:12:19;625.00;;;154.03;;
75156;SDS011;63736;50.076;8.198;2023-07-24T13:14:45;626.22;;;154.07;;
75156;SDS011;63736;50.076;8.198;2023-07-24T13:17:10;627.27;;;154.27;;
75156;SDS011;63736;50.076;8.198;2023-07-24T13:19:35;628.73;;;154.20;;
75156;SDS011;63736;50.076;8.198;2023-07-24T13:22:01;628.10;;;154.90;;
75156;SDS011;63736;50.076;8.198;2023-07-24T13:24:26;630.60;;;155.57;;
75156;SDS011;63736;50.076;8.198;2023-07-24T13:26:51;631.50;;;155.57;;
75156;SDS011;63736;50.076;8.198;2023-07-24T13:29:17;634.47;;;156.17;;
75156;SDS011;63736;50.076;8.198;2023-07-24T13:31:42;636.43;;;157.87;;
75156;SDS011;63736;50.076;8.198;2023-07-24T13:34:07;633.40;;;155.77;;
75156;SDS011;63736;50.076;8.198;2023-07-24T13:36:35;635.28;;;155.70;;
75156;SDS011;63736;50.076;8.198;2023-07-24T13:39:01;638.30;;;157.90;;
75156;SDS011;63736;50.076;8.198;2023-07-24T13:41:27;638.65;;;156.40;;
75156;SDS011;63736;50.076;8.198;2023-07-24T13:43:52;640.87;;;158.70;;
75156;SDS011;63736;50.076;8.198;2023-07-24T13:46:17;642.63;;;158.50;;
75156;SDS011;63736;50.076;8.198;2023-07-24T13:48:43;639.58;;;156.93;;
75156;SDS011;63736;50.076;8.198;2023-07-24T13:51:08;641.13;;;157.10;;
75156;SDS011;63736;50.076;8.198;2023-07-24T13:53:33;641.73;;;157.00;;
75156;SDS011;63736;50.076;8.198;2023-07-24T13:55:59;644.27;;;158.00;;